MOL Modern — V7VS6 — position and weather

sailwx.info

Track history (hours):
 
Tides and Currents Weather Stations Pressure Air Temp Water Temp Dewpoint Dewpoint Depression Visibility Wind Speed Wind Dir Waves Ship Positions

MOL Modern

Last reported at 2015-Aug-02 15:33 UTC. Time now 2015-Aug-02 16:29 UTC.
Position N 36°55' E 000°36'.

Length 302 m; draft 12.5 m.

Type: Ship (hazmat cat A). MMSI: 538004203.

Date/timePositionNaut miles runAvg speedWind from/ knotsBaromVisibWave heightAir tempDewpointWater temp
2015-Aug-02 15:33N 36°55' E 000°36'1818.2
2015-Aug-02 14:32N 36°59' E 000°59'8218.5
2015-Aug-02 10:06N 37°12' E 002°40'1018.6
2015-Aug-02 09:33N 37°13' E 002°53'4019.4
2015-Aug-02 07:27N 37°17' E 003°43'3719.0
2015-Aug-02 05:31N 37°21' E 004°29'4018.8
2015-Aug-02 03:24N 37°25' E 005°19'17218.6
2015-Aug-01 18:10N 37°43' E 008°55'1718.5
2015-Aug-01 17:14N 37°42' E 009°17'1318.6
2015-Aug-01 16:33N 37°41' E 009°33'1818.3
2015-Aug-01 15:33N 37°39' E 009°56'1817.9
2015-Aug-01 14:33N 37°38' E 010°18'1817.9
2015-Aug-01 13:33N 37°34' E 010°40'1817.9
2015-Aug-01 12:33N 37°30' E 011°02'1817.9
2015-Aug-01 11:33N 37°23' E 011°23'1818.4
2015-Aug-01 10:33N 37°14' E 011°43'1818.3
2015-Aug-01 09:33N 37°06' E 012°03'1919.0
2015-Aug-01 08:33N 37°00' E 012°26'1919.3
2015-Aug-01 07:33N 36°55' E 012°49'1818.1
2015-Aug-01 06:33N 36°49' E 013°11'1717.6
2015-Aug-01 05:33N 36°44' E 013°32'1817.9
2015-Aug-01 04:33N 36°38' E 013°53'1818.6
2015-Aug-01 03:33N 36°33' E 014°15'1918.5
2015-Aug-01 02:33N 36°27' E 014°37'1818.2
2015-Aug-01 01:33N 36°22' E 014°59'1818.2
2015-Aug-01 00:33N 36°16' E 015°20'1818.1
2015-Jul-31 23:33N 36°11' E 015°41'1818.0
2015-Jul-31 22:33N 36°05' E 016°03'1818.0
2015-Jul-31 21:33N 35°60' E 016°24'1818.0
2015-Jul-31 20:33N 35°54' E 016°45'1818.0
2015-Jul-31 19:33N 35°49' E 017°07'1818.1
2015-Jul-31 18:33N 35°43' E 017°27'2018.3
2015-Jul-31 17:28N 35°37' E 017°51'1818.0
2015-Jul-31 16:27N 35°32' E 018°12'2018.1
2015-Jul-31 15:21N 35°25' E 018°35'1418.2
2015-Jul-31 14:33N 35°21' E 018°52'1918.6
2015-Jul-31 13:33N 35°15' E 019°14'22018.3
2015-Jul-31 01:32N 34°08' E 023°29'2118.4
2015-Jul-31 00:22N 34°01' E 023°54'5218.5
2015-Jul-30 21:32N 33°46' E 024°54'4018.2
2015-Jul-30 19:22N 33°33' E 025°39'6918.1
2015-Jul-30 15:32N 33°13' E 026°58'11719.3
2015-Jul-30 09:28N 32°37' E 029°11'1718.3
2015-Jul-30 08:33N 32°32' E 029°30'1818.1
2015-Jul-30 07:33N 32°26' E 029°50'1818.3
2015-Jul-30 06:34N 32°21' E 030°11'1918.6
2015-Jul-30 05:33N 32°15' E 030°32'4018.7
2015-Jul-30 03:24N 32°01' E 031°16'1918.4
2015-Jul-30 02:22N 31°54' E 031°37'1518.2
2015-Jul-30 01:33N 31°48' E 031°53'1818.2
2015-Jul-30 00:32N 31°36' E 032°09'1717.3
2015-Jul-29 23:33N 31°25' E 032°24'1312.8
2015-Jul-29 22:33N 31°12' E 032°20'29 9.6
2015-Jul-29 19:33N 30°43' E 032°21'58 3.4
2015-Jul-29 02:20N 29°46' E 032°34'  
Track history (hours):
 
Tides and Currents Weather Stations Pressure Air Temp Water Temp Dewpoint Dewpoint Depression Visibility Wind Speed Wind Dir Waves Ship Positions

MOL Modern

Last reported at 2015-Aug-02 15:33 UTC. Time now 2015-Aug-02 16:29 UTC.
Position N 36°55' E 000°36'.

Length 302 m; draft 12.5 m.

Type: Ship (hazmat cat A). MMSI: 538004203.

Date/timePositionNaut miles runAvg speedWind from/ knotsBaromVisibWave heightAir tempDewpointWater temp
2015-Aug-02 15:33N 36°55' E 000°36'1818.2
2015-Aug-02 14:32N 36°59' E 000°59'8218.5
2015-Aug-02 10:06N 37°12' E 002°40'1018.6
2015-Aug-02 09:33N 37°13' E 002°53'4019.4
2015-Aug-02 07:27N 37°17' E 003°43'3719.0
2015-Aug-02 05:31N 37°21' E 004°29'4018.8
2015-Aug-02 03:24N 37°25' E 005°19'17218.6
2015-Aug-01 18:10N 37°43' E 008°55'1718.5
2015-Aug-01 17:14N 37°42' E 009°17'1318.6
2015-Aug-01 16:33N 37°41' E 009°33'1818.3
2015-Aug-01 15:33N 37°39' E 009°56'1817.9
2015-Aug-01 14:33N 37°38' E 010°18'1817.9
2015-Aug-01 13:33N 37°34' E 010°40'1817.9
2015-Aug-01 12:33N 37°30' E 011°02'1817.9
2015-Aug-01 11:33N 37°23' E 011°23'1818.4
2015-Aug-01 10:33N 37°14' E 011°43'1818.3
2015-Aug-01 09:33N 37°06' E 012°03'1919.0
2015-Aug-01 08:33N 37°00' E 012°26'1919.3
2015-Aug-01 07:33N 36°55' E 012°49'1818.1
2015-Aug-01 06:33N 36°49' E 013°11'1717.6
2015-Aug-01 05:33N 36°44' E 013°32'1817.9
2015-Aug-01 04:33N 36°38' E 013°53'1818.6
2015-Aug-01 03:33N 36°33' E 014°15'1918.5
2015-Aug-01 02:33N 36°27' E 014°37'1818.2
2015-Aug-01 01:33N 36°22' E 014°59'1818.2
2015-Aug-01 00:33N 36°16' E 015°20'1818.1
2015-Jul-31 23:33N 36°11' E 015°41'1818.0
2015-Jul-31 22:33N 36°05' E 016°03'1818.0
2015-Jul-31 21:33N 35°60' E 016°24'1818.0
2015-Jul-31 20:33N 35°54' E 016°45'1818.0
2015-Jul-31 19:33N 35°49' E 017°07'1818.1
2015-Jul-31 18:33N 35°43' E 017°27'2018.3
2015-Jul-31 17:28N 35°37' E 017°51'1818.0
2015-Jul-31 16:27N 35°32' E 018°12'2018.1
2015-Jul-31 15:21N 35°25' E 018°35'1418.2
2015-Jul-31 14:33N 35°21' E 018°52'1918.6
2015-Jul-31 13:33N 35°15' E 019°14'22018.3
2015-Jul-31 01:32N 34°08' E 023°29'2118.4
2015-Jul-31 00:22N 34°01' E 023°54'5218.5
2015-Jul-30 21:32N 33°46' E 024°54'4018.2
2015-Jul-30 19:22N 33°33' E 025°39'6918.1
2015-Jul-30 15:32N 33°13' E 026°58'11719.3
2015-Jul-30 09:28N 32°37' E 029°11'1718.3
2015-Jul-30 08:33N 32°32' E 029°30'1818.1
2015-Jul-30 07:33N 32°26' E 029°50'1818.3
2015-Jul-30 06:34N 32°21' E 030°11'1918.6
2015-Jul-30 05:33N 32°15' E 030°32'4018.7
2015-Jul-30 03:24N 32°01' E 031°16'1918.4
2015-Jul-30 02:22N 31°54' E 031°37'1518.2
2015-Jul-30 01:33N 31°48' E 031°53'1818.2
2015-Jul-30 00:32N 31°36' E 032°09'1717.3
2015-Jul-29 23:33N 31°25' E 032°24'1312.8
2015-Jul-29 22:33N 31°12' E 032°20'29 9.6
2015-Jul-29 19:33N 30°43' E 032°21'58 3.4
2015-Jul-29 02:20N 29°46' E 032°34'  

Dump ship's entire track history